createdAt,value
2019-04-26T00:01:21.972Z,10.40
2019-04-26T00:03:53.200Z,10.40
2019-04-26T00:06:24.756Z,10.40
2019-04-26T00:09:13.717Z,10.30
2019-04-26T00:12:16.401Z,10.30
2019-04-26T00:15:05.058Z,10.30
2019-04-26T00:17:45.440Z,10.30
2019-04-26T00:20:17.128Z,10.30
2019-04-26T00:22:48.723Z,10.30
2019-04-26T00:25:20.005Z,10.20
2019-04-26T00:27:51.129Z,10.20
2019-04-26T00:30:23.469Z,10.10
2019-04-26T00:32:54.624Z,10.20
2019-04-26T00:35:26.867Z,10.20
2019-04-26T00:37:58.032Z,10.10
2019-04-26T00:40:29.292Z,10.10
2019-04-26T00:43:03.311Z,10.10
2019-04-26T00:45:36.967Z,10.00
2019-04-26T00:48:09.618Z,10.00
2019-04-26T00:50:41.148Z,10.10
2019-04-26T00:53:13.291Z,10.10
2019-04-26T00:55:45.906Z,10.10
2019-04-26T00:58:18.461Z,10.10
2019-04-26T01:00:49.877Z,10.00
2019-04-26T01:03:21.032Z,9.90
2019-04-26T01:05:59.788Z,9.90
2019-04-26T01:08:25.483Z,9.90
2019-04-26T01:10:56.640Z,9.80
2019-04-26T01:13:27.814Z,9.80
2019-04-26T01:15:58.912Z,9.80
2019-04-26T01:18:30.277Z,9.70
2019-04-26T01:21:03.888Z,9.70
2019-04-26T01:23:38.785Z,9.70
2019-04-26T01:26:17.863Z,9.70
2019-04-26T01:28:58.965Z,9.60
2019-04-26T01:31:34.392Z,9.50
2019-04-26T01:34:05.586Z,9.50
2019-04-26T01:36:38.996Z,9.40
2019-04-26T01:39:17.032Z,9.40
2019-04-26T01:42:12.157Z,9.30
2019-04-26T01:45:17.990Z,9.30
2019-04-26T01:47:51.935Z,9.30
2019-04-26T01:50:27.439Z,9.30
2019-04-26T01:52:59.139Z,9.30
2019-04-26T01:55:32.594Z,9.30
2019-04-26T01:58:06.626Z,9.30
2019-04-26T02:00:59.700Z,9.30
2019-04-26T02:03:31.819Z,9.40
2019-04-26T02:06:03.024Z,9.40
2019-04-26T02:08:34.118Z,9.40
2019-04-26T02:11:05.257Z,9.50
2019-04-26T02:13:36.510Z,9.50
2019-04-26T02:16:07.659Z,9.60
2019-04-26T02:18:38.876Z,9.50
2019-04-26T02:21:30.182Z,9.50
2019-04-26T02:24:26.295Z,9.40
2019-04-26T02:26:59.107Z,9.40
2019-04-26T02:29:30.446Z,9.40
2019-04-26T02:32:05.399Z,9.40
2019-04-26T02:34:38.450Z,9.50
2019-04-26T02:37:12.204Z,9.50
2019-04-26T02:39:43.541Z,9.50
2019-04-26T02:42:28.206Z,9.40
2019-04-26T02:45:26.948Z,9.40
2019-04-26T02:48:19.358Z,9.40
2019-04-26T02:50:56.711Z,9.30
2019-04-26T02:53:43.070Z,9.30
2019-04-26T02:56:35.640Z,9.30
2019-04-26T02:59:45.655Z,9.30
2019-04-26T03:02:22.454Z,9.20
2019-04-26T03:05:00.409Z,9.10
2019-04-26T03:08:02.145Z,9.10
2019-04-26T03:10:45.381Z,9.10
2019-04-26T03:13:32.948Z,9.10
2019-04-26T03:16:33.412Z,9.10
2019-04-26T03:19:31.454Z,9.00
2019-04-26T03:22:42.712Z,9.00
2019-04-26T03:25:25.130Z,9.00
2019-04-26T03:28:25.150Z,9.00
2019-04-26T03:31:14.366Z,9.10
2019-04-26T03:34:02.003Z,9.00
2019-04-26T03:37:22.762Z,8.90
2019-04-26T03:40:07.495Z,8.90
2019-04-26T03:43:22.508Z,8.80
2019-04-26T03:46:24.170Z,8.80
2019-04-26T03:49:13.944Z,8.80
2019-04-26T03:51:54.587Z,8.80
2019-04-26T03:54:28.958Z,8.70
2019-04-26T03:57:14.728Z,8.80
2019-04-26T04:00:19.665Z,8.90
2019-04-26T04:03:17.539Z,9.00
2019-04-26T04:05:51.714Z,9.10
2019-04-26T04:08:27.457Z,9.30
2019-04-26T04:11:04.030Z,9.40
2019-04-26T04:13:57.117Z,9.50
2019-04-26T04:17:22.805Z,9.60
2019-04-26T04:20:26.608Z,9.80
2019-04-26T04:23:39.765Z,10.00
2019-04-26T04:26:14.570Z,10.30
2019-04-26T04:29:18.605Z,10.50
2019-04-26T04:31:54.113Z,10.80
2019-04-26T04:34:33.139Z,11.10
2019-04-26T04:37:07.110Z,11.30
2019-04-26T04:40:11.088Z,11.50
2019-04-26T04:43:04.911Z,11.70
2019-04-26T04:46:28.279Z,12.00
2019-04-26T04:49:31.349Z,12.20
2019-04-26T04:52:50.156Z,12.40
2019-04-26T04:55:30.373Z,12.70
2019-04-26T04:58:15.349Z,13.00
2019-04-26T05:01:44.169Z,13.20
2019-04-26T05:04:27.953Z,13.30
2019-04-26T05:07:29.638Z,13.50
2019-04-26T05:10:26.708Z,13.60
2019-04-26T05:13:31.353Z,13.60
2019-04-26T05:16:20.778Z,13.80
2019-04-26T05:19:35.873Z,14.10
2019-04-26T05:22:30.757Z,14.40
2019-04-26T05:25:49.843Z,14.70
2019-04-26T05:28:35.178Z,15.00
2019-04-26T05:31:32.958Z,15.30
2019-04-26T05:34:29.575Z,15.60
2019-04-26T05:37:24.403Z,15.90
2019-04-26T05:40:11.724Z,16.20
2019-04-26T05:43:29.800Z,16.40
2019-04-26T05:46:47.035Z,16.70
2019-04-26T05:50:02.634Z,17.00
2019-04-26T05:53:29.808Z,17.20
2019-04-26T05:56:36.127Z,17.40
2019-04-26T05:59:41.214Z,17.70
2019-04-26T06:03:17.381Z,18.00
2019-04-26T06:06:29.180Z,18.30
2019-04-26T06:09:43.077Z,18.50
2019-04-26T06:12:45.392Z,18.80
2019-04-26T06:15:44.458Z,19.00
2019-04-26T06:19:14.318Z,19.20
2019-04-26T06:22:15.313Z,19.40
2019-04-26T06:25:20.799Z,19.70
2019-04-26T06:28:07.235Z,19.90
2019-04-26T06:30:51.412Z,20.10
2019-04-26T06:33:38.182Z,20.20
2019-04-26T06:36:20.153Z,20.40
2019-04-26T06:39:30.507Z,20.60
2019-04-26T06:42:30.133Z,20.80
2019-04-26T06:45:40.576Z,21.00
2019-04-26T06:48:22.145Z,21.10
2019-04-26T06:51:04.942Z,21.30
2019-04-26T06:54:00.714Z,21.40
2019-04-26T06:56:53.116Z,21.60
2019-04-26T06:59:36.469Z,21.70
2019-04-26T07:02:21.315Z,21.80
2019-04-26T07:05:09.840Z,21.80
2019-04-26T07:08:09.169Z,21.80
2019-04-26T07:10:51.142Z,21.90
2019-04-26T07:13:46.893Z,22.10
2019-04-26T07:16:27.923Z,22.20
2019-04-26T07:19:54.110Z,22.50
2019-04-26T07:22:46.126Z,22.60
2019-04-26T07:26:13.743Z,22.70
2019-04-26T07:29:29.945Z,22.70
2019-04-26T07:32:17.234Z,22.90
2019-04-26T07:35:16.650Z,23.10
2019-04-26T07:38:46.397Z,23.30
2019-04-26T07:41:52.110Z,23.60
2019-04-26T07:44:51.438Z,23.80
2019-04-26T07:48:18.831Z,24.10
2019-04-26T07:51:28.116Z,24.20
2019-04-26T07:54:54.337Z,24.40
2019-04-26T07:57:49.903Z,24.50
2019-04-26T08:00:28.517Z,24.60
2019-04-26T08:03:29.062Z,24.80
2019-04-26T08:06:06.072Z,24.90
2019-04-26T08:08:45.877Z,25.00
2019-04-26T08:11:23.092Z,25.10
2019-04-26T08:14:30.334Z,25.20
2019-04-26T08:17:38.271Z,25.40
2019-04-26T08:20:31.959Z,25.60
2019-04-26T08:23:08.993Z,25.80
2019-04-26T08:25:41.118Z,26.00
2019-04-26T08:28:16.427Z,26.20
2019-04-26T08:30:50.793Z,26.20
2019-04-26T08:33:28.050Z,26.30
2019-04-26T08:36:02.191Z,26.30
2019-04-26T08:38:36.457Z,26.50
2019-04-26T08:41:09.862Z,26.60
2019-04-26T08:43:51.825Z,26.70
2019-04-26T08:46:52.202Z,26.70
2019-04-26T08:49:39.080Z,26.70
2019-04-26T08:52:14.907Z,26.90
2019-04-26T08:54:53.911Z,27.20
2019-04-26T08:57:29.621Z,27.40
2019-04-26T09:00:03.896Z,27.50
2019-04-26T09:03:11.435Z,27.60
2019-04-26T09:06:00.025Z,27.70
2019-04-26T09:08:39.188Z,27.70
2019-04-26T09:11:23.751Z,27.70
2019-04-26T09:13:49.901Z,27.80
2019-04-26T09:16:21.907Z,27.90
2019-04-26T09:18:57.268Z,28.10
2019-04-26T09:21:39.582Z,28.30
2019-04-26T09:24:25.057Z,28.40
2019-04-26T09:27:00.330Z,28.50
2019-04-26T09:30:04.914Z,28.60
2019-04-26T09:32:43.363Z,28.70
2019-04-26T09:35:16.249Z,28.80
2019-04-26T09:37:47.688Z,29.00
2019-04-26T09:40:22.539Z,29.20
2019-04-26T09:43:15.037Z,29.30
2019-04-26T09:46:04.560Z,29.50
2019-04-26T09:48:54.654Z,29.80
2019-04-26T09:51:26.266Z,29.80
2019-04-26T09:53:57.725Z,29.80
2019-04-26T09:56:28.874Z,29.80
2019-04-26T09:59:01.557Z,29.80
2019-04-26T10:01:33.776Z,29.80
2019-04-26T10:04:05.630Z,30.00
2019-04-26T10:06:37.019Z,30.20
2019-04-26T10:09:17.244Z,30.20
2019-04-26T10:11:57.829Z,30.30
2019-04-26T10:14:36.686Z,30.40
2019-04-26T10:17:20.627Z,30.70
2019-04-26T10:19:53.733Z,30.90
2019-04-26T10:22:27.130Z,31.10
2019-04-26T10:25:02.645Z,31.30
2019-04-26T10:27:32.443Z,31.50
2019-04-26T10:30:09.051Z,31.60
2019-04-26T10:32:38.065Z,31.70
2019-04-26T10:35:09.340Z,31.70
2019-04-26T10:37:44.039Z,31.90
2019-04-26T10:40:13.570Z,32.10
2019-04-26T10:42:44.731Z,32.00
2019-04-26T10:45:16.365Z,32.00
2019-04-26T10:47:47.644Z,31.80
2019-04-26T10:50:19.090Z,31.70
2019-04-26T10:52:59.710Z,31.50
2019-04-26T10:55:59.476Z,31.50
2019-04-26T10:58:37.832Z,31.70
2019-04-26T11:01:12.281Z,32.00
2019-04-26T11:03:43.524Z,32.40
2019-04-26T11:06:14.989Z,32.60
2019-04-26T11:08:47.056Z,32.80
2019-04-26T11:11:18.247Z,33.00
2019-04-26T11:13:49.678Z,33.10
2019-04-26T11:16:20.953Z,33.20
2019-04-26T11:18:52.198Z,33.30
2019-04-26T11:21:23.389Z,33.60
2019-04-26T11:23:54.597Z,33.90
2019-04-26T11:26:25.823Z,33.40
2019-04-26T11:28:57.181Z,32.70
2019-04-26T11:31:29.416Z,32.30
2019-04-26T11:34:05.385Z,32.10
2019-04-26T11:36:33.532Z,32.00
2019-04-26T11:39:07.543Z,31.80
2019-04-26T11:41:39.184Z,31.70
2019-04-26T11:44:10.417Z,31.70
2019-04-26T11:46:44.926Z,31.60
2019-04-26T11:49:14.269Z,31.50
2019-04-26T11:51:45.430Z,31.30
2019-04-26T11:54:17.059Z,31.10
2019-04-26T11:56:50.452Z,31.10
2019-04-26T11:59:21.817Z,31.20
2019-04-26T12:01:52.987Z,31.50
2019-04-26T12:04:33.474Z,31.80
2019-04-26T12:07:14.130Z,31.80
2019-04-26T12:09:46.823Z,31.90
2019-04-26T12:12:18.071Z,32.00
2019-04-26T12:14:49.292Z,31.90
2019-04-26T12:17:20.418Z,31.70
2019-04-26T12:19:52.183Z,31.40
2019-04-26T12:22:24.402Z,31.10
2019-04-26T12:24:55.520Z,30.90
2019-04-26T12:27:30.730Z,31.10
2019-04-26T12:29:59.720Z,31.80
2019-04-26T12:32:30.794Z,32.50
2019-04-26T12:35:01.997Z,33.10
2019-04-26T12:37:33.246Z,33.80
2019-04-26T12:40:07.184Z,34.20
2019-04-26T12:42:38.888Z,34.50
2019-04-26T12:45:41.374Z,34.80
2019-04-26T12:48:15.708Z,35.00
2019-04-26T12:50:47.192Z,35.00
2019-04-26T12:53:18.316Z,34.70
2019-04-26T12:55:53.176Z,34.30
2019-04-26T12:58:22.442Z,34.30
2019-04-26T13:00:54.601Z,34.50
2019-04-26T13:03:29.222Z,34.80
2019-04-26T13:05:59.098Z,34.80
2019-04-26T13:08:30.392Z,34.60
2019-04-26T13:11:29.567Z,34.20
2019-04-26T13:14:19.561Z,33.90
2019-04-26T13:17:21.814Z,33.70
2019-04-26T13:19:54.057Z,33.80
2019-04-26T13:22:25.834Z,33.90
2019-04-26T13:24:56.951Z,33.60
2019-04-26T13:27:30.951Z,33.30
2019-04-26T13:30:10.379Z,33.30
2019-04-26T13:32:39.615Z,33.50
2019-04-26T13:35:11.517Z,33.70
2019-04-26T13:37:44.788Z,33.70
2019-04-26T13:40:25.735Z,33.50
2019-04-26T13:42:56.984Z,33.50
2019-04-26T13:46:02.440Z,33.50
2019-04-26T13:48:52.473Z,33.60
2019-04-26T13:51:24.115Z,33.50
2019-04-26T13:53:55.210Z,33.60
2019-04-26T13:56:26.262Z,33.50
2019-04-26T13:58:58.342Z,33.30
2019-04-26T14:01:30.124Z,33.30
2019-04-26T14:04:02.405Z,33.60
2019-04-26T14:06:34.009Z,34.20
2019-04-26T14:09:07.413Z,34.50
2019-04-26T14:11:39.633Z,34.80
2019-04-26T14:14:10.804Z,35.10
2019-04-26T14:16:41.976Z,35.50
2019-04-26T14:19:15.522Z,35.70
2019-04-26T14:21:46.469Z,35.80
2019-04-26T14:24:42.063Z,36.00
2019-04-26T14:27:30.728Z,36.00
2019-04-26T14:30:02.532Z,35.80
2019-04-26T14:32:42.710Z,35.50
2019-04-26T14:35:18.387Z,35.30
2019-04-26T14:37:50.276Z,35.10
2019-04-26T14:40:26.672Z,34.50
2019-04-26T14:43:06.887Z,33.80
2019-04-26T14:45:39.912Z,33.00
2019-04-26T14:48:20.485Z,32.70
2019-04-26T14:50:47.614Z,32.80
2019-04-26T14:53:19.013Z,33.10
2019-04-26T14:55:54.578Z,33.40
2019-04-26T14:58:30.083Z,33.70
2019-04-26T15:01:03.676Z,34.10
2019-04-26T15:03:45.829Z,34.10
2019-04-26T15:06:29.971Z,33.90
2019-04-26T15:09:02.916Z,33.70
2019-04-26T15:11:36.177Z,33.50
2019-04-26T15:14:08.182Z,33.50
2019-04-26T15:16:41.453Z,33.40
2019-04-26T15:19:14.068Z,33.20
2019-04-26T15:21:44.776Z,33.10
2019-04-26T15:24:15.983Z,32.80
2019-04-26T15:26:47.134Z,32.50
2019-04-26T15:29:21.273Z,32.20
2019-04-26T15:31:53.562Z,32.00
2019-04-26T15:34:26.572Z,31.60
2019-04-26T15:36:56.560Z,31.30
2019-04-26T15:39:42.377Z,31.20
2019-04-26T15:42:39.064Z,31.10
2019-04-26T15:45:25.101Z,31.40
2019-04-26T15:48:20.167Z,31.70
2019-04-26T15:50:53.935Z,31.70
2019-04-26T15:53:24.909Z,31.50
2019-04-26T15:55:56.245Z,31.20
2019-04-26T15:58:27.378Z,30.90
2019-04-26T16:00:58.629Z,30.50
2019-04-26T16:03:29.796Z,30.10
2019-04-26T16:06:07.038Z,29.80
2019-04-26T16:08:42.341Z,29.60
2019-04-26T16:11:07.279Z,29.30
2019-04-26T16:13:39.381Z,29.10
2019-04-26T16:16:12.495Z,28.90
2019-04-26T16:18:43.205Z,28.70
2019-04-26T16:21:17.977Z,28.50
2019-04-26T16:23:51.487Z,28.30
2019-04-26T16:26:19.974Z,28.10
2019-04-26T16:29:18.156Z,27.90
2019-04-26T16:32:32.529Z,27.70
2019-04-26T16:35:34.582Z,27.60
2019-04-26T16:38:25.717Z,27.40
2019-04-26T16:41:05.977Z,27.20
2019-04-26T16:43:53.257Z,27.00
2019-04-26T16:46:24.796Z,26.80
2019-04-26T16:49:05.892Z,26.60
2019-04-26T16:51:41.197Z,26.40
2019-04-26T16:54:20.673Z,26.20
2019-04-26T16:56:59.090Z,26.00
2019-04-26T16:59:47.407Z,25.90
2019-04-26T17:02:15.962Z,25.70
2019-04-26T17:04:48.487Z,25.50
2019-04-26T17:07:25.371Z,25.30
2019-04-26T17:09:58.004Z,25.10
2019-04-26T17:12:25.770Z,24.90
2019-04-26T17:14:56.809Z,24.70
2019-04-26T17:17:27.977Z,24.60
2019-04-26T17:19:59.055Z,24.40
2019-04-26T17:22:59.428Z,24.20
2019-04-26T17:25:45.516Z,24.10
2019-04-26T17:28:18.005Z,23.90
2019-04-26T17:30:49.492Z,23.70
2019-04-26T17:33:22.739Z,23.50
2019-04-26T17:35:53.369Z,23.40
2019-04-26T17:38:25.300Z,23.20
2019-04-26T17:40:56.697Z,23.00
2019-04-26T17:43:28.232Z,22.90
2019-04-26T17:46:01.057Z,22.70
2019-04-26T17:48:33.616Z,22.60
2019-04-26T17:51:04.955Z,22.40
2019-04-26T17:53:36.206Z,22.30
2019-04-26T17:56:07.599Z,22.20
2019-04-26T17:58:51.239Z,22.00
2019-04-26T18:01:33.520Z,21.80
2019-04-26T18:03:52.031Z,21.70
2019-04-26T18:06:29.429Z,21.60
2019-04-26T18:08:55.232Z,21.50
2019-04-26T18:11:25.751Z,21.40
2019-04-26T18:13:57.267Z,21.40
2019-04-26T18:16:29.629Z,21.30
2019-04-26T18:19:30.469Z,21.20
2019-04-26T18:22:07.402Z,21.10
2019-04-26T18:24:38.683Z,21.00
2019-04-26T18:27:09.912Z,20.90
2019-04-26T18:29:43.667Z,20.90
2019-04-26T18:32:16.702Z,20.80
2019-04-26T18:34:48.241Z,20.80
2019-04-26T18:37:23.128Z,20.80
2019-04-26T18:39:57.399Z,20.70
2019-04-26T18:42:27.814Z,20.70
2019-04-26T18:44:59.248Z,20.70
2019-04-26T18:47:37.987Z,20.60
2019-04-26T18:50:09.891Z,20.50
2019-04-26T18:52:59.833Z,20.50
2019-04-26T18:55:34.339Z,20.40
2019-04-26T18:58:05.530Z,20.30
2019-04-26T19:00:38.861Z,20.30
2019-04-26T19:03:13.337Z,20.30
2019-04-26T19:05:43.918Z,20.20
2019-04-26T19:08:15.200Z,20.10
2019-04-26T19:10:58.486Z,19.90
2019-04-26T19:13:41.287Z,19.80
2019-04-26T19:16:25.028Z,19.70
2019-04-26T19:19:03.818Z,19.60
2019-04-26T19:21:41.070Z,19.50
2019-04-26T19:24:19.412Z,19.40
2019-04-26T19:26:49.566Z,19.30
2019-04-26T19:29:27.401Z,19.20
2019-04-26T19:31:52.354Z,19.10
2019-04-26T19:34:26.082Z,19.00
2019-04-26T19:36:59.716Z,19.00
2019-04-26T19:39:33.270Z,18.80
2019-04-26T19:42:02.546Z,18.70
2019-04-26T19:44:34.957Z,18.60
2019-04-26T19:47:25.096Z,18.60
2019-04-26T19:50:13.492Z,18.40
2019-04-26T19:53:10.344Z,18.30
2019-04-26T19:55:59.250Z,18.10
2019-04-26T19:58:32.153Z,18.00
2019-04-26T20:01:04.798Z,17.80
2019-04-26T20:03:36.140Z,17.70
2019-04-26T20:06:07.464Z,17.50
2019-04-26T20:08:43.955Z,17.40
2019-04-26T20:11:14.323Z,17.30
2019-04-26T20:13:47.039Z,17.20
2019-04-26T20:16:17.720Z,17.00
2019-04-26T20:18:49.099Z,16.90
2019-04-26T20:21:21.627Z,16.80
2019-04-26T20:23:54.532Z,16.70
2019-04-26T20:26:25.946Z,16.60
2019-04-26T20:28:57.328Z,16.50
2019-04-26T20:31:44.975Z,16.40
2019-04-26T20:34:18.177Z,16.30
2019-04-26T20:36:47.817Z,16.20
2019-04-26T20:39:21.025Z,16.10
2019-04-26T20:42:01.036Z,16.00
2019-04-26T20:44:28.464Z,15.90
2019-04-26T20:46:59.857Z,15.80
2019-04-26T20:49:32.178Z,15.70
2019-04-26T20:52:04.152Z,15.60
2019-04-26T20:54:35.327Z,15.50
2019-04-26T20:57:06.511Z,15.40
2019-04-26T20:59:38.677Z,15.30
2019-04-26T21:02:12.103Z,15.20
2019-04-26T21:04:46.048Z,15.20
2019-04-26T21:07:16.152Z,15.00
2019-04-26T21:09:47.802Z,15.00
2019-04-26T21:12:19.984Z,14.90
2019-04-26T21:14:51.762Z,14.90
2019-04-26T21:17:27.690Z,14.80
2019-04-26T21:19:58.677Z,14.70
2019-04-26T21:22:31.666Z,14.70
2019-04-26T21:25:08.364Z,14.60
2019-04-26T21:28:02.381Z,14.50
2019-04-26T21:30:51.559Z,14.50
2019-04-26T21:33:42.936Z,14.50
2019-04-26T21:36:40.954Z,14.80
2019-04-26T21:39:21.641Z,15.20
2019-04-26T21:41:53.227Z,15.70
2019-04-26T21:44:25.766Z,16.10
2019-04-26T21:46:58.900Z,16.40
2019-04-26T21:49:29.937Z,16.70
2019-04-26T21:52:01.185Z,17.00
2019-04-26T21:54:32.976Z,17.20
2019-04-26T21:57:04.553Z,17.40
2019-04-26T21:59:40.891Z,17.40
2019-04-26T22:02:09.094Z,17.50
2019-04-26T22:04:40.900Z,17.50
2019-04-26T22:07:12.424Z,17.50
2019-04-26T22:10:09.222Z,17.50
2019-04-26T22:12:38.581Z,17.50
2019-04-26T22:15:35.841Z,17.40
2019-04-26T22:18:10.245Z,17.40
2019-04-26T22:20:58.055Z,17.40
2019-04-26T22:23:47.585Z,17.30
2019-04-26T22:26:18.876Z,17.30
2019-04-26T22:28:50.315Z,17.30
2019-04-26T22:31:23.699Z,17.30
2019-04-26T22:33:56.130Z,17.20
2019-04-26T22:36:30.876Z,17.10
2019-04-26T22:39:02.705Z,17.00
2019-04-26T22:41:36.097Z,16.90
2019-04-26T22:44:15.805Z,16.80
2019-04-26T22:47:15.666Z,16.80
2019-04-26T22:49:47.257Z,16.80
2019-04-26T22:52:19.077Z,16.60
2019-04-26T22:54:50.577Z,16.50
2019-04-26T22:57:23.237Z,16.50
2019-04-26T22:59:54.626Z,16.40
2019-04-26T23:02:27.750Z,16.30
2019-04-26T23:05:00.614Z,16.30
2019-04-26T23:07:33.226Z,16.20
2019-04-26T23:10:06.913Z,16.00
2019-04-26T23:13:04.491Z,15.90
2019-04-26T23:15:44.508Z,15.80
2019-04-26T23:18:46.976Z,15.60
2019-04-26T23:21:25.379Z,15.50
2019-04-26T23:23:57.006Z,15.40
2019-04-26T23:26:28.238Z,15.30
2019-04-26T23:28:59.484Z,15.10
2019-04-26T23:31:30.774Z,15.00
2019-04-26T23:34:02.985Z,14.90
2019-04-26T23:36:34.895Z,14.80
2019-04-26T23:39:07.672Z,14.70
2019-04-26T23:41:41.642Z,14.60
2019-04-26T23:44:13.983Z,14.50
2019-04-26T23:46:45.132Z,14.50
2019-04-26T23:49:19.264Z,14.30
2019-04-26T23:51:49.121Z,14.30
2019-04-26T23:54:20.180Z,14.20
2019-04-26T23:56:55.717Z,14.10
2019-04-26T23:59:24.799Z,14.00
